Main page
METAR-TAF:

METAR-TAF

Airports :

Zvartnots International Airport

Yerevan, Armenia

latitude: 40-08-50N, longitude: 044-23-45E, elevation: 865 m

Current weather observation

The report was made 9 hours and 1 minutes ago, at 05:00 UTC
Wind 4 kt from the Southeast
Temperature 22°C
Humidity 57%
Pressure 1016 hPa
Visibility 10 km or more

METAR: UDYZ 210500Z 14004KT 9999 NSC 22/13 Q1016 R09/000070 NOSIG

Time: 18:01 (14:01 UTC)

Forecast

The report was made 8 hours and 55 minutes ago, at 05:06 UTC
Forecast valid from 21 at 06 UTC to 22 at 06 UTC
Wind 6 kt from the South
Visibility 10 km or more
Few clouds at a height of 4000 ft
Temporary
from 21 at 12 UTC to 21 at 22 UTC
Wind 20 kt from the Northeast with gusts up to 30 kt
Scattered clouds at a height of 4000 ft, Cumulonimbus.

TAF: UDYZ 210506Z 2106/2206 19006KT 9999 FEW040 TEMPO 2112/2122 04020G30KT SCT040CB

Weather observations and forecasts of more than 4000 airports (METAR and TAF reports).

The available stations are represented by yellow and red dots on the map.

Hover mouse over dot to see the name of the station.

Then click to see weather observations and forecasts.

To change the map : click on the green buttons with a black cross to zoom in, on the green button with a dash to zoom out, or on the green arrows for adjacent maps.


METAR-TAF: